KISM/ISM METAR and TAF weather

Enter ICAO airport designator
Station Type Date Time Source
KISM METAR 2020/11/27 13:56 UTC NOAA

KISM 271356Z 00000KT 10SM CLR 22/20 A3017 RMK AO2 SLP216 T02220200 PNO $


Station Type Date Time Source
KISM Decoded METAR 2020/11/27 13:56 UTC NOAA

Orlando, Kissimmee Municipal Airport, FL, United States (KISM) 28-17-23N 081-26-14W
Nov 27, 2020 - 08:56 AM EST / 2020.11.27 1356 UTC
Wind: Calm:0
Visibility: 10 mile(s):0
Sky conditions: clear
Temperature: 72.0 F (22.2 C)
Dew Point: 68.0 F (20.0 C)
Relative Humidity: 87%
Pressure (altimeter): 30.17 in. Hg (1021 hPa)
ob: KISM 271356Z 00000KT 10SM CLR 22/20 A3017 RMK AO2 SLP216 T02220200 PNO
cycle: 14

Station Type Date Time Source
KISM TAF 2020/11/27 12:45 UTC NOAA

TAF KISM 271142Z 2712/2812 VRB03KT P6SM SCT250
FM271500 VRB03KT P6SM FEW030 SCT250
FM272200 09006KT P6SM SCT045 SCT250
FM280300 VRB03KT P6SM FEW045 SCT250

Example: see airport list